createdAt,value
2023-02-23T00:00:32.664Z,8.70
2023-02-23T00:01:34.960Z,10.18
2023-02-23T00:02:37.216Z,9.60
2023-02-23T00:03:40.582Z,10.20
2023-02-23T00:04:43.013Z,9.88
2023-02-23T00:05:45.290Z,9.77
2023-02-23T00:06:47.875Z,10.00
2023-02-23T00:07:50.365Z,9.95
2023-02-23T00:08:53.497Z,9.10
2023-02-23T00:09:57.045Z,10.60
2023-02-23T00:11:00.376Z,9.55
2023-02-23T00:12:08.035Z,9.85
2023-02-23T00:13:11.123Z,9.70
2023-02-23T00:14:13.378Z,9.70
2023-02-23T00:15:16.260Z,9.45
2023-02-23T00:16:21.605Z,8.98
2023-02-23T00:17:24.491Z,9.67
2023-02-23T00:18:30.185Z,12.05
2023-02-23T00:19:33.680Z,10.95
2023-02-23T00:20:36.037Z,9.65
2023-02-23T00:21:39.039Z,12.23
2023-02-23T00:22:41.742Z,9.65
2023-02-23T00:23:57.349Z,9.63
2023-02-23T00:24:59.774Z,7.50
2023-02-23T00:26:04.452Z,9.27
2023-02-23T00:27:06.933Z,9.45
2023-02-23T00:28:10.276Z,10.15
2023-02-23T00:29:25.152Z,9.18
2023-02-23T00:30:29.987Z,10.85
2023-02-23T00:31:32.497Z,10.05
2023-02-23T00:32:35.221Z,11.02
2023-02-23T00:33:37.621Z,10.98
2023-02-23T00:34:39.857Z,11.15
2023-02-23T00:35:42.856Z,9.85
2023-02-23T00:36:45.165Z,10.43
2023-02-23T00:37:49.602Z,9.60
2023-02-23T00:38:56.948Z,9.50
2023-02-23T00:39:59.271Z,10.68
2023-02-23T00:41:09.015Z,11.73
2023-02-23T00:42:11.630Z,11.02
2023-02-23T00:43:15.246Z,10.20
2023-02-23T00:44:17.822Z,10.80
2023-02-23T00:45:20.585Z,11.40
2023-02-23T00:46:25.080Z,11.20
2023-02-23T00:47:27.338Z,10.80
2023-02-23T00:48:29.602Z,10.63
2023-02-23T00:49:31.962Z,11.30
2023-02-23T00:50:34.841Z,9.88
2023-02-23T00:51:37.540Z,11.80
2023-02-23T00:52:42.464Z,11.98
2023-02-23T00:53:45.794Z,12.68
2023-02-23T00:54:48.075Z,11.50
2023-02-23T00:55:50.318Z,10.65
2023-02-23T00:56:52.636Z,11.23
2023-02-23T00:57:54.852Z,11.85
2023-02-23T00:58:57.373Z,10.18
2023-02-23T01:00:03.867Z,12.30
2023-02-23T01:01:12.754Z,11.93
2023-02-23T01:02:15.419Z,11.88
2023-02-23T01:03:18.014Z,11.35
2023-02-23T01:04:20.367Z,11.07
2023-02-23T01:05:22.939Z,12.20
2023-02-23T01:06:25.213Z,13.40
2023-02-23T01:07:27.546Z,11.70
2023-02-23T01:08:32.447Z,12.20
2023-02-23T01:09:34.922Z,10.98
2023-02-23T01:10:44.118Z,11.55
2023-02-23T01:11:47.409Z,11.18
2023-02-23T01:12:51.972Z,10.68
2023-02-23T01:13:57.201Z,11.65
2023-02-23T01:14:59.716Z,10.95
2023-02-23T01:16:08.833Z,10.93
2023-02-23T01:17:11.403Z,10.60
2023-02-23T01:18:14.978Z,10.45
2023-02-23T01:19:17.346Z,10.15
2023-02-23T01:20:19.742Z,11.45
2023-02-23T01:21:30.471Z,11.43
2023-02-23T01:22:32.787Z,13.05
2023-02-23T01:23:35.096Z,12.80
2023-02-23T01:24:38.698Z,13.88
2023-02-23T01:25:45.019Z,13.13
2023-02-23T01:26:47.429Z,12.38
2023-02-23T01:27:49.700Z,11.95
2023-02-23T01:28:53.927Z,11.20
2023-02-23T01:29:56.191Z,13.27
2023-02-23T01:30:58.503Z,11.48
2023-02-23T01:32:03.262Z,12.10
2023-02-23T01:33:06.818Z,10.88
2023-02-23T01:34:12.038Z,14.43
2023-02-23T01:35:14.545Z,13.55
2023-02-23T01:36:16.870Z,12.90
2023-02-23T01:37:19.338Z,12.30
2023-02-23T01:38:21.627Z,11.25
2023-02-23T01:39:23.891Z,12.93
2023-02-23T01:40:31.018Z,12.30
2023-02-23T01:41:35.138Z,14.85
2023-02-23T01:42:39.247Z,12.50
2023-02-23T01:44:14.055Z,12.38
2023-02-23T01:45:27.843Z,11.55
2023-02-23T01:46:35.326Z,13.15
2023-02-23T01:47:37.628Z,12.07
2023-02-23T01:48:40.526Z,12.68
2023-02-23T01:49:43.015Z,13.65
2023-02-23T01:50:54.415Z,13.02
2023-02-23T01:51:56.668Z,11.65
2023-02-23T01:52:59.483Z,13.23
2023-02-23T01:54:09.127Z,13.40
2023-02-23T01:55:13.422Z,13.43
2023-02-23T01:56:21.472Z,12.40
2023-02-23T01:57:25.144Z,12.93
2023-02-23T01:58:30.512Z,12.32
2023-02-23T01:59:38.146Z,12.25
2023-02-23T02:00:40.843Z,12.38
2023-02-23T02:01:43.937Z,12.50
2023-02-23T02:02:48.809Z,12.65
2023-02-23T02:04:00.034Z,12.23
2023-02-23T02:05:04.667Z,11.07
2023-02-23T02:06:09.962Z,11.52
2023-02-23T02:07:22.954Z,13.90
2023-02-23T02:08:26.801Z,11.35
2023-02-23T02:09:29.249Z,12.80
2023-02-23T02:10:40.254Z,12.88
2023-02-23T02:11:45.138Z,11.27
2023-02-23T02:12:54.989Z,11.60
2023-02-23T02:14:03.756Z,12.77
2023-02-23T02:15:17.068Z,11.13
2023-02-23T02:16:25.278Z,12.85
2023-02-23T02:17:37.464Z,12.18
2023-02-23T02:19:11.141Z,11.10
2023-02-23T02:20:37.414Z,11.70
2023-02-23T02:21:51.804Z,11.90
2023-02-23T02:23:32.482Z,12.50
2023-02-23T02:24:59.293Z,12.13
2023-02-23T02:26:15.962Z,12.48
2023-02-23T02:27:45.033Z,12.35
2023-02-23T02:29:11.209Z,13.77
2023-02-23T02:30:55.667Z,12.82
2023-02-23T02:32:31.971Z,11.23
2023-02-23T02:33:53.550Z,11.98
2023-02-23T02:35:31.120Z,12.98
2023-02-23T02:37:02.288Z,13.25
2023-02-23T02:39:07.920Z,11.27
2023-02-23T02:40:27.746Z,12.35
2023-02-23T02:41:51.230Z,13.05
2023-02-23T02:43:12.531Z,12.40
2023-02-23T02:44:24.396Z,12.52
2023-02-23T02:45:59.658Z,13.35
2023-02-23T02:47:09.254Z,14.32
2023-02-23T02:48:20.719Z,14.20
2023-02-23T02:49:31.391Z,13.70
2023-02-23T02:50:47.028Z,13.38
2023-02-23T02:52:17.091Z,14.60
2023-02-23T02:53:50.781Z,14.30
2023-02-23T02:54:56.874Z,13.85
2023-02-23T02:56:05.493Z,14.27
2023-02-23T02:57:13.026Z,12.90
2023-02-23T02:58:17.866Z,13.95
2023-02-23T02:59:39.256Z,13.82
2023-02-23T03:01:05.728Z,13.32
2023-02-23T03:02:34.913Z,13.45
2023-02-23T03:04:01.299Z,14.85
2023-02-23T03:05:47.078Z,13.73
2023-02-23T03:07:27.186Z,13.48
2023-02-23T03:09:09.381Z,14.27
2023-02-23T03:10:40.481Z,12.63
2023-02-23T03:12:22.705Z,14.15
2023-02-23T03:14:04.938Z,15.23
2023-02-23T03:15:35.604Z,13.75
2023-02-23T03:17:09.133Z,14.70
2023-02-23T03:18:56.245Z,13.57
2023-02-23T03:20:30.058Z,13.30
2023-02-23T03:22:01.215Z,14.15
2023-02-23T03:23:31.061Z,13.52
2023-02-23T03:24:57.909Z,13.80
2023-02-23T03:26:46.843Z,13.70
2023-02-23T03:28:30.132Z,13.57
2023-02-23T03:29:55.710Z,13.88
2023-02-23T03:31:23.391Z,14.30
2023-02-23T03:32:54.220Z,15.38
2023-02-23T03:34:30.159Z,13.60
2023-02-23T03:36:16.392Z,14.27
2023-02-23T03:37:46.947Z,13.07
2023-02-23T03:39:44.999Z,13.68
2023-02-23T03:41:09.836Z,13.25
2023-02-23T03:42:37.473Z,15.18
2023-02-23T03:44:07.694Z,14.02
2023-02-23T03:45:34.232Z,14.70
2023-02-23T03:46:57.094Z,13.85
2023-02-23T03:48:20.035Z,14.80
2023-02-23T03:49:45.281Z,15.23
2023-02-23T03:51:15.143Z,13.93
2023-02-23T03:52:40.058Z,14.18
2023-02-23T03:54:14.677Z,13.43
2023-02-23T03:55:44.055Z,14.63
2023-02-23T03:57:09.407Z,14.90
2023-02-23T03:58:32.761Z,14.30
2023-02-23T03:59:59.024Z,13.98
2023-02-23T04:01:23.147Z,14.25
2023-02-23T04:02:45.078Z,15.02
2023-02-23T04:04:09.403Z,14.07
2023-02-23T04:05:35.565Z,14.88
2023-02-23T04:07:02.043Z,15.98
2023-02-23T04:08:28.037Z,17.25
2023-02-23T04:09:50.181Z,15.65
2023-02-23T04:11:21.901Z,16.10
2023-02-23T04:12:52.408Z,16.48
2023-02-23T04:14:00.437Z,15.55
2023-02-23T04:15:33.436Z,16.27
2023-02-23T04:16:36.329Z,15.88
2023-02-23T04:17:39.612Z,15.23
2023-02-23T04:18:42.654Z,15.57
2023-02-23T04:19:53.000Z,14.30
2023-02-23T04:20:56.612Z,14.32
2023-02-23T04:21:58.988Z,15.18
2023-02-23T04:23:01.305Z,14.07
2023-02-23T04:24:03.668Z,15.85
2023-02-23T04:25:09.022Z,15.70
2023-02-23T04:26:11.333Z,15.25
2023-02-23T04:27:14.727Z,16.73
2023-02-23T04:28:17.107Z,14.48
2023-02-23T04:29:19.336Z,13.95
2023-02-23T04:30:25.255Z,14.13
2023-02-23T04:31:27.866Z,15.00
2023-02-23T04:32:31.056Z,13.93
2023-02-23T04:33:33.369Z,15.48
2023-02-23T04:34:35.628Z,14.20
2023-02-23T04:35:38.359Z,13.88
2023-02-23T04:36:40.853Z,15.57
2023-02-23T04:37:43.082Z,16.23
2023-02-23T04:38:45.733Z,15.95
2023-02-23T04:39:50.936Z,16.20
2023-02-23T04:40:53.281Z,15.32
2023-02-23T04:41:55.518Z,16.13
2023-02-23T04:42:57.830Z,14.95
2023-02-23T04:44:00.084Z,14.50
2023-02-23T04:45:02.880Z,15.10
2023-02-23T04:46:05.360Z,16.33
2023-02-23T04:47:07.759Z,16.50
2023-02-23T04:48:10.130Z,16.38
2023-02-23T04:49:12.488Z,15.07
2023-02-23T04:50:14.908Z,21.95
2023-02-23T04:51:17.468Z,17.23
2023-02-23T04:52:19.826Z,15.90
2023-02-23T04:53:22.213Z,16.77
2023-02-23T04:54:24.543Z,15.32
2023-02-23T04:55:26.820Z,16.65
2023-02-23T04:56:30.082Z,17.08
2023-02-23T04:57:32.490Z,15.10
2023-02-23T04:58:34.868Z,14.60
2023-02-23T04:59:37.273Z,15.70
2023-02-23T05:00:40.970Z,14.43
2023-02-23T05:01:44.751Z,15.05
2023-02-23T05:02:48.439Z,15.70
2023-02-23T05:03:52.063Z,15.45
2023-02-23T05:04:54.628Z,16.35
2023-02-23T05:05:56.914Z,14.65
2023-02-23T05:06:59.500Z,14.25
2023-02-23T05:08:01.811Z,14.73
2023-02-23T05:09:05.169Z,14.50
2023-02-23T05:10:08.011Z,15.60
2023-02-23T05:11:10.666Z,14.27
2023-02-23T05:12:12.963Z,16.05
2023-02-23T05:13:15.919Z,16.70
2023-02-23T05:14:18.223Z,15.60
2023-02-23T05:15:21.124Z,13.40
2023-02-23T05:16:23.778Z,14.38
2023-02-23T05:17:26.475Z,14.70
2023-02-23T05:18:28.951Z,14.40
2023-02-23T05:19:31.279Z,13.32
2023-02-23T05:20:33.552Z,15.25
2023-02-23T05:21:35.870Z,15.73
2023-02-23T05:22:38.739Z,15.82
2023-02-23T05:23:41.092Z,14.82
2023-02-23T05:24:43.347Z,13.90
2023-02-23T05:25:45.710Z,13.02
2023-02-23T05:26:48.732Z,13.95
2023-02-23T05:27:51.163Z,14.07
2023-02-23T05:28:54.719Z,13.52
2023-02-23T05:29:56.962Z,13.88
2023-02-23T05:30:59.416Z,12.95
2023-02-23T05:32:02.026Z,13.50
2023-02-23T05:33:04.423Z,12.93
2023-02-23T05:34:06.878Z,12.27
2023-02-23T05:35:09.534Z,13.70
2023-02-23T05:36:13.784Z,14.45
2023-02-23T05:37:16.017Z,13.35
2023-02-23T05:38:18.515Z,13.20
2023-02-23T05:39:21.612Z,12.80
2023-02-23T05:40:23.879Z,12.10
2023-02-23T05:41:26.366Z,11.95
2023-02-23T05:42:28.612Z,12.75
2023-02-23T05:43:30.844Z,13.82
2023-02-23T05:44:33.122Z,13.20
2023-02-23T05:45:39.596Z,12.93
2023-02-23T05:46:41.963Z,13.40
2023-02-23T05:47:44.207Z,12.60
2023-02-23T05:48:46.603Z,12.75
2023-02-23T05:49:48.836Z,12.48
2023-02-23T05:50:51.101Z,12.82
2023-02-23T05:51:53.381Z,13.02
2023-02-23T05:52:55.655Z,13.00
2023-02-23T05:53:58.339Z,11.80
2023-02-23T05:55:00.622Z,13.85
2023-02-23T05:56:05.412Z,13.50
2023-02-23T05:57:08.379Z,12.63
2023-02-23T05:58:10.668Z,12.95
2023-02-23T05:59:13.488Z,13.13
2023-02-23T06:00:16.045Z,14.98
2023-02-23T06:01:19.289Z,13.25
2023-02-23T06:02:22.609Z,13.65
2023-02-23T06:03:24.963Z,14.20
2023-02-23T06:04:27.248Z,13.65
2023-02-23T06:05:29.985Z,13.07
2023-02-23T06:06:32.232Z,12.82
2023-02-23T06:07:34.656Z,13.25
2023-02-23T06:08:37.365Z,11.82
2023-02-23T06:09:39.681Z,14.00
2023-02-23T06:10:41.951Z,14.00
2023-02-23T06:11:44.673Z,13.80
2023-02-23T06:12:47.018Z,13.75
2023-02-23T06:13:49.810Z,14.25
2023-02-23T06:14:52.353Z,15.18
2023-02-23T06:15:54.889Z,15.07
2023-02-23T06:16:57.852Z,12.00
2023-02-23T06:18:00.161Z,12.40
2023-02-23T06:19:02.423Z,14.48
2023-02-23T06:20:07.441Z,13.98
2023-02-23T06:21:10.232Z,12.10
2023-02-23T06:22:12.730Z,12.20
2023-02-23T06:23:18.423Z,12.60
2023-02-23T06:24:21.626Z,12.73
2023-02-23T06:25:24.320Z,14.05
2023-02-23T06:26:27.060Z,13.50
2023-02-23T06:27:29.333Z,14.80
2023-02-23T06:28:31.570Z,14.95
2023-02-23T06:29:33.969Z,15.77
2023-02-23T06:30:37.032Z,15.48
2023-02-23T06:31:39.640Z,13.68
2023-02-23T06:32:42.004Z,14.27
2023-02-23T06:33:48.435Z,15.60
2023-02-23T06:34:50.713Z,15.60
2023-02-23T06:35:54.682Z,16.70
2023-02-23T06:36:57.034Z,14.65
2023-02-23T06:38:01.378Z,15.68
2023-02-23T06:39:04.523Z,14.82
2023-02-23T06:40:07.764Z,12.73
2023-02-23T06:41:11.355Z,13.85
2023-02-23T06:42:13.602Z,12.25
2023-02-23T06:43:16.134Z,14.25
2023-02-23T06:44:18.411Z,11.90
2023-02-23T06:45:21.143Z,14.23
2023-02-23T06:46:24.686Z,12.35
2023-02-23T06:47:27.037Z,12.77
2023-02-23T06:48:29.481Z,12.05
2023-02-23T06:49:31.986Z,12.35
2023-02-23T06:50:34.249Z,15.38
2023-02-23T06:51:36.510Z,13.85
2023-02-23T06:52:38.838Z,15.13
2023-02-23T06:53:41.052Z,17.08
2023-02-23T06:54:43.421Z,16.23
2023-02-23T06:55:46.353Z,15.65
2023-02-23T06:56:48.770Z,14.45
2023-02-23T06:57:52.013Z,16.08
2023-02-23T06:58:54.565Z,15.63
2023-02-23T06:59:56.942Z,15.10
2023-02-23T07:00:59.611Z,14.88
2023-02-23T07:02:02.300Z,15.15
2023-02-23T07:03:04.620Z,16.52
2023-02-23T07:04:06.917Z,17.70
2023-02-23T07:05:10.276Z,16.88
2023-02-23T07:06:12.596Z,15.85
2023-02-23T07:07:15.130Z,16.15
2023-02-23T07:08:18.364Z,15.50
2023-02-23T07:09:20.621Z,15.82
2023-02-23T07:10:23.039Z,14.93
2023-02-23T07:11:25.356Z,17.58
2023-02-23T07:12:27.666Z,16.17
2023-02-23T07:13:29.907Z,16.40
2023-02-23T07:14:33.483Z,16.52
2023-02-23T07:15:40.377Z,16.70
2023-02-23T07:16:42.845Z,18.10
2023-02-23T07:17:48.783Z,16.50
2023-02-23T07:18:51.063Z,17.17
2023-02-23T07:19:53.436Z,16.60
2023-02-23T07:20:55.959Z,17.90
2023-02-23T07:21:58.622Z,16.25
2023-02-23T07:23:02.058Z,16.20
2023-02-23T07:24:06.035Z,16.95
2023-02-23T07:25:09.383Z,16.60
2023-02-23T07:26:16.173Z,16.90
2023-02-23T07:27:19.097Z,17.60
2023-02-23T07:28:21.453Z,19.08
2023-02-23T07:29:24.132Z,17.85
2023-02-23T07:30:26.757Z,16.95
2023-02-23T07:31:29.371Z,17.10
2023-02-23T07:32:31.817Z,16.58
2023-02-23T07:33:34.202Z,16.55
2023-02-23T07:34:37.859Z,15.45
2023-02-23T07:35:40.196Z,14.68
2023-02-23T07:36:42.425Z,15.40
2023-02-23T07:37:44.825Z,17.50
2023-02-23T07:38:47.129Z,16.15
2023-02-23T07:39:49.391Z,16.58
2023-02-23T07:40:51.959Z,15.27
2023-02-23T07:41:54.542Z,17.58
2023-02-23T07:42:57.405Z,18.98
2023-02-23T07:44:00.795Z,18.70
2023-02-23T07:45:03.156Z,19.52
2023-02-23T07:46:06.132Z,16.70
2023-02-23T07:47:08.407Z,17.33
2023-02-23T07:48:10.928Z,16.83
2023-02-23T07:49:14.647Z,16.52
2023-02-23T07:50:17.065Z,17.15
2023-02-23T07:51:20.117Z,17.67
2023-02-23T07:52:22.544Z,15.98
2023-02-23T07:53:27.807Z,18.80
2023-02-23T07:54:30.373Z,17.67
2023-02-23T07:55:32.663Z,19.10
2023-02-23T07:56:35.632Z,17.52
2023-02-23T07:57:38.674Z,16.23
2023-02-23T07:58:43.070Z,15.85
2023-02-23T07:59:45.343Z,13.80
2023-02-23T08:00:47.813Z,15.25
2023-02-23T08:01:51.758Z,13.93
2023-02-23T08:02:54.106Z,15.77
2023-02-23T08:03:56.383Z,13.25
2023-02-23T08:04:59.674Z,13.45
2023-02-23T08:06:01.979Z,12.65
2023-02-23T08:07:04.311Z,13.30
2023-02-23T08:08:06.878Z,12.80
2023-02-23T08:09:10.764Z,13.00
2023-02-23T08:10:13.230Z,12.95
2023-02-23T08:11:15.902Z,10.98
2023-02-23T08:12:18.396Z,11.82
2023-02-23T08:13:20.976Z,10.80
2023-02-23T08:14:24.048Z,11.07
2023-02-23T08:15:26.364Z,11.25
2023-02-23T08:16:33.621Z,11.32
2023-02-23T08:17:38.439Z,9.68
2023-02-23T08:18:40.784Z,9.88
2023-02-23T08:19:43.298Z,9.80
2023-02-23T08:20:45.559Z,11.38
2023-02-23T08:21:47.863Z,10.70
2023-02-23T08:22:56.177Z,10.60
2023-02-23T08:23:58.980Z,9.40
2023-02-23T08:25:03.240Z,12.18
2023-02-23T08:26:05.568Z,9.57
2023-02-23T08:27:08.036Z,11.60
2023-02-23T08:28:10.825Z,10.25
2023-02-23T08:29:13.135Z,11.00
2023-02-23T08:30:16.791Z,9.80
2023-02-23T08:31:21.359Z,12.80
2023-02-23T08:32:24.027Z,12.27
2023-02-23T08:33:26.406Z,10.00
2023-02-23T08:34:28.701Z,10.77
2023-02-23T08:35:31.485Z,11.02
2023-02-23T08:36:33.752Z,17.40
2023-02-23T08:37:36.286Z,16.80
2023-02-23T08:38:38.537Z,12.10
2023-02-23T08:39:43.357Z,11.27
2023-02-23T08:40:45.876Z,10.60
2023-02-23T08:41:48.141Z,13.15
2023-02-23T08:42:52.080Z,11.32
2023-02-23T08:43:54.512Z,11.93
2023-02-23T08:44:56.781Z,10.48
2023-02-23T08:45:59.117Z,11.02
2023-02-23T08:47:04.584Z,9.90
2023-02-23T08:48:08.989Z,9.35
2023-02-23T08:49:11.535Z,11.60
2023-02-23T08:50:14.528Z,10.00
2023-02-23T08:51:17.253Z,9.30
2023-02-23T08:52:20.009Z,8.45
2023-02-23T08:53:23.063Z,8.75
2023-02-23T08:54:25.351Z,8.02
2023-02-23T08:55:27.623Z,9.63
2023-02-23T08:56:31.773Z,10.23
2023-02-23T08:57:35.417Z,9.27
2023-02-23T08:58:37.930Z,8.38
2023-02-23T08:59:41.604Z,8.40
2023-02-23T09:00:44.963Z,8.48
2023-02-23T09:01:47.303Z,8.05
2023-02-23T09:02:50.113Z,7.38
2023-02-23T09:03:52.382Z,7.78
2023-02-23T09:04:54.931Z,8.10
2023-02-23T09:05:59.844Z,8.63
2023-02-23T09:07:02.673Z,7.65
2023-02-23T09:08:05.392Z,7.78
2023-02-23T09:09:07.704Z,12.20
2023-02-23T09:10:16.638Z,7.30
2023-02-23T09:11:19.188Z,9.77
2023-02-23T09:12:21.738Z,10.73
2023-02-23T09:13:24.029Z,8.93
2023-02-23T09:14:26.670Z,8.05
2023-02-23T09:15:29.041Z,8.05
2023-02-23T09:16:32.301Z,7.93
2023-02-23T09:17:34.612Z,7.70
2023-02-23T09:18:37.988Z,11.75
2023-02-23T09:19:40.273Z,10.15
2023-02-23T09:20:43.604Z,7.40
2023-02-23T09:21:46.278Z,7.63
2023-02-23T09:22:51.265Z,7.95
2023-02-23T09:23:56.196Z,9.75
2023-02-23T09:24:58.522Z,9.18
2023-02-23T09:26:05.499Z,10.07
2023-02-23T09:27:07.766Z,8.15
2023-02-23T09:28:13.298Z,9.40
2023-02-23T09:29:15.763Z,7.93
2023-02-23T09:30:20.693Z,8.45
2023-02-23T09:31:24.601Z,7.95
2023-02-23T09:32:27.054Z,8.15
2023-02-23T09:33:29.362Z,7.15
2023-02-23T09:34:31.613Z,7.05
2023-02-23T09:35:36.292Z,9.15
2023-02-23T09:36:38.823Z,7.40
2023-02-23T09:37:41.102Z,7.10
2023-02-23T09:38:44.946Z,7.10
2023-02-23T09:39:48.886Z,6.18
2023-02-23T09:40:53.999Z,6.75
2023-02-23T09:42:25.700Z,8.32
2023-02-23T09:43:42.541Z,6.20
2023-02-23T09:45:02.480Z,7.72
2023-02-23T09:46:38.531Z,7.47
2023-02-23T09:47:58.281Z,7.45
2023-02-23T09:49:03.911Z,7.45
2023-02-23T09:50:18.954Z,6.57
2023-02-23T09:51:24.902Z,7.40
2023-02-23T09:52:44.935Z,6.70
2023-02-23T09:54:08.688Z,6.65
2023-02-23T09:55:14.277Z,6.20
2023-02-23T09:56:38.047Z,6.07
2023-02-23T09:57:45.036Z,6.30
2023-02-23T09:58:47.483Z,6.95
2023-02-23T09:59:49.803Z,7.75
2023-02-23T10:01:20.119Z,8.10
2023-02-23T10:02:30.160Z,7.05
2023-02-23T10:03:37.736Z,7.32
2023-02-23T10:04:47.072Z,8.48
2023-02-23T10:05:56.203Z,9.15
2023-02-23T10:07:13.392Z,8.75
2023-02-23T10:08:32.551Z,7.45
2023-02-23T10:09:59.669Z,7.28
2023-02-23T10:11:26.319Z,7.50
2023-02-23T10:12:43.172Z,8.18
2023-02-23T10:14:09.933Z,8.48
2023-02-23T10:15:37.863Z,9.55
2023-02-23T10:16:49.289Z,9.93
2023-02-23T10:18:44.927Z,14.38
2023-02-23T10:19:57.382Z,26.27
2023-02-23T10:20:59.665Z,25.58
2023-02-23T10:22:06.539Z,23.27
2023-02-23T10:23:18.882Z,21.35
2023-02-23T10:24:29.295Z,21.85
2023-02-23T10:25:36.146Z,20.00
2023-02-23T10:26:58.070Z,17.65
2023-02-23T10:28:01.433Z,17.30
2023-02-23T10:29:10.674Z,16.75
2023-02-23T10:30:21.894Z,16.17
2023-02-23T10:31:27.328Z,14.60
2023-02-23T10:32:53.473Z,13.88
2023-02-23T10:34:00.084Z,13.77
2023-02-23T10:35:11.238Z,13.73
2023-02-23T10:36:35.121Z,14.88
2023-02-23T10:37:38.023Z,15.05
2023-02-23T10:38:40.358Z,13.40
2023-02-23T10:39:43.068Z,12.80
2023-02-23T10:40:53.770Z,13.60
2023-02-23T10:42:02.287Z,11.35
2023-02-23T10:43:04.629Z,11.13
2023-02-23T10:44:18.003Z,11.40
2023-02-23T10:45:25.865Z,10.52
2023-02-23T10:46:38.657Z,9.90
2023-02-23T10:47:41.630Z,10.98
2023-02-23T10:48:44.725Z,10.88
2023-02-23T10:49:48.642Z,12.13
2023-02-23T10:50:54.165Z,12.85
2023-02-23T10:52:02.848Z,11.48
2023-02-23T10:53:11.874Z,13.25
2023-02-23T10:54:38.000Z,14.45
2023-02-23T10:55:40.370Z,14.77
2023-02-23T10:56:47.122Z,12.88
2023-02-23T10:57:53.954Z,11.45
2023-02-23T10:58:58.137Z,12.70
2023-02-23T11:00:00.350Z,15.02
2023-02-23T11:01:05.027Z,12.57
2023-02-23T11:02:24.540Z,14.05
2023-02-23T11:03:35.870Z,12.43
2023-02-23T11:04:38.184Z,11.90
2023-02-23T11:05:46.559Z,11.60
2023-02-23T11:06:50.696Z,11.20
2023-02-23T11:08:22.563Z,12.63
2023-02-23T11:09:44.480Z,10.52
2023-02-23T11:11:16.059Z,10.90
2023-02-23T11:12:25.491Z,10.65
2023-02-23T11:13:35.134Z,12.23
2023-02-23T11:14:37.392Z,10.18
2023-02-23T11:15:50.669Z,10.38
2023-02-23T11:16:55.163Z,9.73
2023-02-23T11:18:00.290Z,10.88
2023-02-23T11:19:05.817Z,10.85
2023-02-23T11:20:26.558Z,9.02
2023-02-23T11:21:35.125Z,10.55
2023-02-23T11:22:41.026Z,10.48
2023-02-23T11:23:43.735Z,11.68
2023-02-23T11:24:46.225Z,11.63
2023-02-23T11:25:55.655Z,9.60
2023-02-23T11:27:03.945Z,10.95
2023-02-23T11:28:06.554Z,11.55
2023-02-23T11:29:36.624Z,11.45
2023-02-23T11:30:43.126Z,12.32
2023-02-23T11:31:58.136Z,9.90
2023-02-23T11:33:10.912Z,11.00
2023-02-23T11:34:29.633Z,11.90
2023-02-23T11:35:32.361Z,9.50
2023-02-23T11:36:36.761Z,10.35
2023-02-23T11:37:39.440Z,14.38
2023-02-23T11:38:41.943Z,11.93
2023-02-23T11:39:56.099Z,12.30
2023-02-23T11:41:18.724Z,11.32
2023-02-23T11:42:25.338Z,12.70
2023-02-23T11:43:27.701Z,14.50
2023-02-23T11:44:29.963Z,13.52
2023-02-23T11:45:39.183Z,14.93
2023-02-23T11:46:45.828Z,14.23
2023-02-23T11:47:56.076Z,14.48
2023-02-23T11:49:02.036Z,13.90
2023-02-23T11:50:06.090Z,13.93
2023-02-23T11:51:09.541Z,13.02
2023-02-23T11:52:16.852Z,12.45
2023-02-23T11:53:28.598Z,13.60
2023-02-23T11:54:35.117Z,13.40
2023-02-23T11:55:38.026Z,13.07
2023-02-23T11:56:40.312Z,13.30
2023-02-23T11:57:43.173Z,12.27
2023-02-23T11:58:51.144Z,13.27
2023-02-23T11:59:53.713Z,11.77
2023-02-23T12:01:14.184Z,14.85
2023-02-23T12:02:23.016Z,12.40
2023-02-23T12:03:27.419Z,13.05
2023-02-23T12:04:39.091Z,13.80
2023-02-23T12:05:41.372Z,12.43
2023-02-23T12:06:43.718Z,12.13
2023-02-23T12:08:10.406Z,11.10
2023-02-23T12:09:19.554Z,13.18
2023-02-23T12:10:30.909Z,13.52
2023-02-23T12:11:42.728Z,15.40
2023-02-23T12:12:58.460Z,13.93
2023-02-23T12:14:12.188Z,15.10
2023-02-23T12:15:39.076Z,12.60
2023-02-23T12:16:48.219Z,15.07
2023-02-23T12:18:02.889Z,14.30
2023-02-23T12:19:10.673Z,14.40
2023-02-23T12:20:17.814Z,14.48
2023-02-23T12:21:47.550Z,14.10
2023-02-23T12:23:02.893Z,15.82
2023-02-23T12:24:23.068Z,15.00
2023-02-23T12:25:36.169Z,15.68
2023-02-23T12:26:49.593Z,16.13
2023-02-23T12:28:19.424Z,15.13
2023-02-23T12:30:11.621Z,15.95
2023-02-23T12:31:28.470Z,13.40
2023-02-23T12:32:36.978Z,15.40
2023-02-23T12:33:44.165Z,16.48
2023-02-23T12:34:53.117Z,14.13
2023-02-23T12:36:04.278Z,13.68
2023-02-23T12:37:37.822Z,13.60
2023-02-23T12:38:56.350Z,14.20
2023-02-23T12:40:16.682Z,17.35
2023-02-23T12:41:45.964Z,16.60
2023-02-23T12:43:03.364Z,14.88
2023-02-23T12:44:39.299Z,15.75
2023-02-23T12:46:08.707Z,17.35
2023-02-23T12:47:35.840Z,15.15
2023-02-23T12:48:45.018Z,15.80
2023-02-23T12:49:57.484Z,16.80
2023-02-23T12:51:04.390Z,16.13
2023-02-23T12:52:32.612Z,15.82
2023-02-23T12:53:41.697Z,16.92
2023-02-23T12:54:46.985Z,16.67
2023-02-23T12:56:07.195Z,15.95
2023-02-23T12:57:19.527Z,15.93
2023-02-23T12:58:34.839Z,13.45
2023-02-23T12:59:37.975Z,15.95
2023-02-23T13:00:45.396Z,20.33
2023-02-23T13:02:13.273Z,18.58
2023-02-23T13:03:33.570Z,18.80
2023-02-23T13:05:02.585Z,19.75
2023-02-23T13:06:30.487Z,16.63
2023-02-23T13:07:50.115Z,16.85
2023-02-23T13:09:30.430Z,18.88
2023-02-23T13:11:02.283Z,17.10
2023-02-23T13:12:10.692Z,16.00
2023-02-23T13:13:54.292Z,15.38
2023-02-23T13:15:29.171Z,17.13
2023-02-23T13:16:43.128Z,14.80
2023-02-23T13:17:49.675Z,16.95
2023-02-23T13:19:10.658Z,18.20
2023-02-23T13:20:53.505Z,16.42
2023-02-23T13:22:22.630Z,15.35
2023-02-23T13:23:53.461Z,16.27
2023-02-23T13:24:59.489Z,17.60
2023-02-23T13:26:33.188Z,19.52
2023-02-23T13:27:40.620Z,17.33
2023-02-23T13:29:09.764Z,20.60
2023-02-23T13:30:12.604Z,19.60
2023-02-23T13:31:29.442Z,20.58
2023-02-23T13:32:34.135Z,21.00
2023-02-23T13:33:43.907Z,20.05
2023-02-23T13:34:56.476Z,20.73
2023-02-23T13:35:58.996Z,24.23
2023-02-23T13:37:06.140Z,22.40
2023-02-23T13:38:22.683Z,22.63
2023-02-23T13:39:55.837Z,23.88
2023-02-23T13:41:17.734Z,24.00
2023-02-23T13:42:36.619Z,26.13
2023-02-23T13:43:47.525Z,25.45
2023-02-23T13:45:18.818Z,25.90
2023-02-23T13:46:47.412Z,25.70
2023-02-23T13:48:24.271Z,25.08
2023-02-23T13:49:54.818Z,25.00
2023-02-23T13:51:27.125Z,25.02
2023-02-23T13:52:31.234Z,23.25
2023-02-23T13:53:42.565Z,22.80
2023-02-23T13:54:56.463Z,23.35
2023-02-23T13:56:03.317Z,25.30
2023-02-23T13:57:16.784Z,24.38
2023-02-23T13:58:27.337Z,24.75
2023-02-23T13:59:37.675Z,23.60
2023-02-23T14:00:39.929Z,23.77
2023-02-23T14:01:46.041Z,24.15
2023-02-23T14:02:49.585Z,24.55
2023-02-23T14:03:57.834Z,24.70
2023-02-23T14:05:18.238Z,26.80
2023-02-23T14:06:23.773Z,30.25
2023-02-23T14:07:38.233Z,25.90
2023-02-23T14:08:43.292Z,25.30
2023-02-23T14:09:55.213Z,25.10
2023-02-23T14:10:57.564Z,24.10
2023-02-23T14:12:16.861Z,25.00
2023-02-23T14:13:19.720Z,26.05
2023-02-23T14:14:31.399Z,28.88
2023-02-23T14:15:37.824Z,27.40
2023-02-23T14:16:40.586Z,24.58
2023-02-23T14:17:44.524Z,23.88
2023-02-23T14:19:12.004Z,22.42
2023-02-23T14:20:35.917Z,23.35
2023-02-23T14:21:52.579Z,22.35
2023-02-23T14:23:16.409Z,29.45
2023-02-23T14:24:24.465Z,23.75
2023-02-23T14:25:32.685Z,24.08
2023-02-23T14:26:43.197Z,24.40
2023-02-23T14:27:45.663Z,23.02
2023-02-23T14:29:07.612Z,29.85
2023-02-23T14:30:16.780Z,32.67
2023-02-23T14:31:22.497Z,32.38
2023-02-23T14:32:25.549Z,35.70
2023-02-23T14:33:51.295Z,34.10
2023-02-23T14:34:59.308Z,32.05
2023-02-23T14:36:03.250Z,33.38
2023-02-23T14:37:18.228Z,31.33
2023-02-23T14:38:46.936Z,30.83
2023-02-23T14:39:51.921Z,32.67
2023-02-23T14:40:55.525Z,28.55
2023-02-23T14:41:59.943Z,30.63
2023-02-23T14:43:04.095Z,31.63
2023-02-23T14:44:28.305Z,31.63
2023-02-23T14:45:36.896Z,32.80
2023-02-23T14:46:51.171Z,34.78
2023-02-23T14:47:57.515Z,32.25
2023-02-23T14:49:15.460Z,32.85
2023-02-23T14:50:25.850Z,34.28
2023-02-23T14:51:48.052Z,32.08
2023-02-23T14:52:51.788Z,35.67
2023-02-23T14:53:59.078Z,38.20
2023-02-23T14:55:22.139Z,38.73
2023-02-23T14:56:35.514Z,40.70
2023-02-23T14:57:44.751Z,39.22
2023-02-23T14:58:54.942Z,34.70